createdAt,value
2019-05-05T00:00:35.230Z,11.6
2019-05-05T00:01:10.493Z,11.6
2019-05-05T00:01:46.146Z,11.6
2019-05-05T00:02:21.765Z,11.6
2019-05-05T00:02:57.416Z,11.6
2019-05-05T00:03:34.245Z,11.6
2019-05-05T00:04:08.776Z,11.6
2019-05-05T00:04:45.435Z,11.5
2019-05-05T00:05:18.973Z,11.5
2019-05-05T00:05:54.708Z,11.5
2019-05-05T00:06:28.205Z,11.5
2019-05-05T00:07:04.379Z,11.5
2019-05-05T00:07:38.430Z,11.5
2019-05-05T00:08:15.228Z,11.5
2019-05-05T00:08:48.179Z,11.5
2019-05-05T00:09:25.182Z,11.5
2019-05-05T00:09:58.564Z,11.5
2019-05-05T00:10:34.737Z,11.5
2019-05-05T00:11:08.160Z,11.5
2019-05-05T00:11:44.439Z,11.5
2019-05-05T00:12:18.408Z,11.5
2019-05-05T00:12:55.038Z,11.5
2019-05-05T00:14:04.675Z,11.5
2019-05-05T00:14:38.410Z,11.5
2019-05-05T00:15:14.565Z,11.4
2019-05-05T00:15:49.175Z,11.4
2019-05-05T00:16:25.341Z,11.4
2019-05-05T00:17:01.557Z,11.4
2019-05-05T00:17:37.192Z,11.4
2019-05-05T00:18:14.803Z,11.4
2019-05-05T00:18:49.524Z,11.4
2019-05-05T00:19:32.299Z,11.4
2019-05-05T00:20:01.346Z,11.4
2019-05-05T00:20:37.517Z,11.5
2019-05-05T00:21:12.142Z,11.5
2019-05-05T00:21:47.418Z,11.5
2019-05-05T00:22:24.371Z,11.5
2019-05-05T00:22:57.508Z,11.5
2019-05-05T00:23:34.315Z,11.5
2019-05-05T00:24:07.240Z,11.5
2019-05-05T00:24:44.165Z,11.5
2019-05-05T00:25:17.500Z,11.5
2019-05-05T00:25:52.166Z,11.5
2019-05-05T00:26:27.247Z,11.5
2019-05-05T00:27:04.268Z,11.5
2019-05-05T00:27:37.495Z,11.5
2019-05-05T00:28:14.128Z,11.5
2019-05-05T00:28:47.237Z,11.5
2019-05-05T00:29:22.332Z,11.5
2019-05-05T00:29:57.470Z,11.5
2019-05-05T00:30:33.793Z,11.5
2019-05-05T00:31:07.218Z,11.5
2019-05-05T00:31:42.337Z,11.5
2019-05-05T00:32:17.571Z,11.5
2019-05-05T00:32:52.052Z,11.5
2019-05-05T00:33:26.662Z,11.5
2019-05-05T00:34:01.302Z,11.5
2019-05-05T00:34:35.860Z,11.5
2019-05-05T00:35:10.471Z,11.5
2019-05-05T00:35:45.222Z,11.6
2019-05-05T00:36:20.739Z,11.6
2019-05-05T00:36:56.378Z,11.6
2019-05-05T00:37:32.051Z,11.6
2019-05-05T00:38:07.701Z,11.6
2019-05-05T00:38:44.450Z,11.6
2019-05-05T00:39:19.047Z,11.6
2019-05-05T00:39:54.649Z,11.6
2019-05-05T00:41:41.059Z,11.6
2019-05-05T00:42:16.744Z,11.6
2019-05-05T00:42:54.684Z,11.6
2019-05-05T00:43:28.674Z,11.6
2019-05-05T00:44:04.926Z,11.6
2019-05-05T00:45:16.545Z,11.6
2019-05-05T00:45:52.720Z,11.6
2019-05-05T00:46:28.901Z,11.6
2019-05-05T00:47:05.252Z,11.6
2019-05-05T00:47:40.719Z,11.6
2019-05-05T00:48:16.902Z,11.6
2019-05-05T00:48:52.546Z,11.6
2019-05-05T00:49:28.200Z,11.6
2019-05-05T00:50:05.269Z,11.6
2019-05-05T00:51:16.195Z,11.6
2019-05-05T00:51:54.500Z,11.6
2019-05-05T00:52:28.554Z,11.6
2019-05-05T00:53:05.340Z,11.6
2019-05-05T00:54:16.562Z,11.6
2019-05-05T00:54:52.214Z,11.6
2019-05-05T00:55:28.500Z,11.6
2019-05-05T00:56:05.156Z,11.6
2019-05-05T00:57:16.406Z,11.6
2019-05-05T00:57:54.578Z,11.6
2019-05-05T00:58:28.250Z,11.6
2019-05-05T00:59:04.599Z,11.6
2019-05-05T00:59:40.569Z,11.6
2019-05-05T01:00:16.251Z,11.6
2019-05-05T01:00:52.450Z,11.6
2019-05-05T01:01:28.754Z,11.6
2019-05-05T01:02:04.675Z,11.6
2019-05-05T01:02:40.399Z,11.6
2019-05-05T01:03:16.595Z,11.6
2019-05-05T01:03:52.255Z,11.6
2019-05-05T01:04:28.433Z,11.6
2019-05-05T01:05:04.635Z,11.6
2019-05-05T01:05:40.243Z,11.6
2019-05-05T01:06:16.427Z,11.6
2019-05-05T01:06:54.386Z,11.6
2019-05-05T01:07:28.928Z,11.6
2019-05-05T01:08:05.180Z,11.7
2019-05-05T01:08:39.566Z,11.7
2019-05-05T01:09:14.830Z,11.7
2019-05-05T01:09:49.283Z,11.7
2019-05-05T01:10:24.896Z,11.7
2019-05-05T01:10:59.616Z,11.7
2019-05-05T01:11:35.509Z,11.7
2019-05-05T01:12:09.262Z,11.7
2019-05-05T01:12:45.002Z,11.7
2019-05-05T01:13:19.516Z,11.7
2019-05-05T01:13:54.673Z,11.7
2019-05-05T01:14:29.246Z,11.7
2019-05-05T01:15:04.653Z,11.7
2019-05-05T01:16:15.214Z,11.7
2019-05-05T01:16:49.223Z,11.7
2019-05-05T01:17:25.263Z,11.7
2019-05-05T01:18:02.147Z,11.7
2019-05-05T01:18:35.096Z,11.7
2019-05-05T01:19:09.205Z,11.7
2019-05-05T01:19:45.519Z,11.7
2019-05-05T01:20:18.437Z,11.7
2019-05-05T01:20:54.969Z,11.7
2019-05-05T01:21:27.630Z,11.7
2019-05-05T01:22:02.221Z,11.7
2019-05-05T01:22:36.889Z,11.7
2019-05-05T01:23:11.454Z,11.7
2019-05-05T01:23:46.056Z,11.7
2019-05-05T01:24:20.665Z,11.7
2019-05-05T01:24:55.553Z,11.7
2019-05-05T01:25:29.867Z,11.7
2019-05-05T01:26:05.013Z,11.7
2019-05-05T01:27:14.705Z,11.7
2019-05-05T01:27:48.247Z,11.7
2019-05-05T01:28:24.668Z,11.7
2019-05-05T01:28:57.457Z,11.7
2019-05-05T01:29:34.607Z,11.7
2019-05-05T01:30:06.670Z,11.7
2019-05-05T01:30:41.290Z,11.7
2019-05-05T01:31:15.881Z,11.7
2019-05-05T01:31:50.495Z,11.7
2019-05-05T01:32:25.087Z,11.7
2019-05-05T01:32:59.681Z,11.7
2019-05-05T01:33:34.408Z,11.7
2019-05-05T01:34:44.341Z,11.7
2019-05-05T01:35:18.124Z,11.7
2019-05-05T01:35:52.693Z,11.7
2019-05-05T01:36:27.292Z,11.7
2019-05-05T01:37:02.426Z,11.7
2019-05-05T01:37:37.075Z,11.7
2019-05-05T01:38:11.674Z,11.7
2019-05-05T01:38:46.273Z,11.7
2019-05-05T01:39:20.833Z,11.7
2019-05-05T01:39:55.452Z,11.7
2019-05-05T01:40:32.061Z,11.7
2019-05-05T01:41:04.639Z,11.7
2019-05-05T01:41:39.251Z,11.7
2019-05-05T01:42:14.355Z,11.7
2019-05-05T01:42:48.457Z,11.7
2019-05-05T01:43:24.796Z,11.7
2019-05-05T01:43:57.674Z,11.7
2019-05-05T01:44:32.272Z,11.7
2019-05-05T01:45:41.494Z,11.7
2019-05-05T01:46:16.084Z,11.7
2019-05-05T01:46:50.707Z,11.7
2019-05-05T01:47:25.473Z,11.7
2019-05-05T01:47:59.883Z,11.7
2019-05-05T01:48:35.057Z,11.7
2019-05-05T01:49:45.208Z,11.7
2019-05-05T01:50:21.103Z,11.7
2019-05-05T01:50:54.348Z,11.7
2019-05-05T01:51:28.079Z,11.7
2019-05-05T01:53:11.344Z,11.7
2019-05-05T01:53:45.934Z,11.7
2019-05-05T01:54:20.546Z,11.7
2019-05-05T01:54:55.116Z,11.7
2019-05-05T01:55:30.272Z,11.7
2019-05-05T01:57:15.131Z,11.7
2019-05-05T01:57:49.710Z,11.7
2019-05-05T01:58:24.863Z,11.7
2019-05-05T01:58:59.954Z,11.7
2019-05-05T02:00:45.235Z,11.7
2019-05-05T02:01:19.960Z,11.7
2019-05-05T02:01:55.268Z,11.7
2019-05-05T02:02:30.850Z,11.7
2019-05-05T02:04:15.077Z,11.7
2019-05-05T02:04:49.662Z,11.7
2019-05-05T02:05:24.306Z,11.7
2019-05-05T02:05:59.386Z,11.7
2019-05-05T02:07:44.999Z,11.7
2019-05-05T02:08:18.845Z,11.7
2019-05-05T02:08:54.709Z,11.7
2019-05-05T02:09:28.579Z,11.7
2019-05-05T02:11:15.589Z,11.6
2019-05-05T02:11:50.158Z,11.6
2019-05-05T02:12:26.315Z,11.6
2019-05-05T02:13:04.377Z,11.7
2019-05-05T02:14:11.178Z,11.7
2019-05-05T02:14:45.794Z,11.7
2019-05-05T02:15:20.388Z,11.7
2019-05-05T02:15:55.286Z,11.7
2019-05-05T02:16:29.578Z,11.7
2019-05-05T02:18:15.495Z,11.6
2019-05-05T02:18:51.160Z,11.6
2019-05-05T02:19:26.792Z,11.6
2019-05-05T02:21:14.239Z,11.7
2019-05-05T02:21:48.370Z,11.7
2019-05-05T02:22:24.643Z,11.7
2019-05-05T02:22:57.559Z,11.7
2019-05-05T02:25:15.436Z,11.6
2019-05-05T02:25:51.097Z,11.6
2019-05-05T02:26:26.776Z,11.6
2019-05-05T02:27:04.898Z,11.6
2019-05-05T02:28:14.896Z,11.6
2019-05-05T02:28:49.885Z,11.6
2019-05-05T02:29:25.029Z,11.6
2019-05-05T02:30:00.674Z,11.6
2019-05-05T02:31:11.989Z,11.5
2019-05-05T02:31:46.569Z,11.5
2019-05-05T02:32:21.185Z,11.5
2019-05-05T02:32:55.783Z,11.5
2019-05-05T02:33:30.408Z,11.5
2019-05-05T02:35:16.192Z,11.5
2019-05-05T02:35:48.932Z,11.5
2019-05-05T02:36:25.699Z,11.5
2019-05-05T02:36:58.028Z,11.5
2019-05-05T02:38:41.947Z,11.5
2019-05-05T02:39:16.397Z,11.5
2019-05-05T02:39:58.745Z,11.5
2019-05-05T02:40:25.611Z,11.5
2019-05-05T02:41:00.211Z,11.4
2019-05-05T02:42:14.357Z,11.4
2019-05-05T02:42:46.646Z,11.4
2019-05-05T02:43:24.289Z,11.4
2019-05-05T02:43:57.944Z,11.4
2019-05-05T02:45:44.905Z,11.4
2019-05-05T02:46:20.558Z,11.4
2019-05-05T02:46:56.220Z,11.4
2019-05-05T02:47:34.562Z,11.4
2019-05-05T02:48:44.969Z,11.4
2019-05-05T02:49:18.312Z,11.4
2019-05-05T02:49:54.854Z,11.4
2019-05-05T02:50:46.435Z,11.4
2019-05-05T02:52:53.507Z,11.4
2019-05-05T02:53:27.346Z,11.4
2019-05-05T02:55:14.706Z,11.4
2019-05-05T02:55:49.943Z,11.4
2019-05-05T02:56:25.583Z,11.4
2019-05-05T02:57:01.260Z,11.4
2019-05-05T02:58:13.989Z,11.4
2019-05-05T02:58:48.193Z,11.4
2019-05-05T02:59:23.844Z,11.4
2019-05-05T02:59:59.515Z,11.4
2019-05-05T03:01:46.440Z,11.3
2019-05-05T03:02:21.068Z,11.3
2019-05-05T03:02:55.681Z,11.3
2019-05-05T03:03:30.269Z,11.3
2019-05-05T03:04:04.849Z,11.3
2019-05-05T03:05:14.298Z,11.3
2019-05-05T03:05:49.193Z,11.3
2019-05-05T03:06:24.478Z,11.3
2019-05-05T03:06:59.448Z,11.3
2019-05-05T03:08:46.400Z,11.2
2019-05-05T03:09:23.825Z,11.2
2019-05-05T03:09:58.251Z,11.2
2019-05-05T03:11:11.237Z,11.2
2019-05-05T03:11:46.230Z,11.2
2019-05-05T03:12:24.241Z,11.2
2019-05-05T03:12:58.062Z,11.2
2019-05-05T03:14:44.583Z,11.1
2019-05-05T03:15:18.574Z,11.1
2019-05-05T03:15:54.953Z,11.1
2019-05-05T03:16:27.802Z,11.1
2019-05-05T03:17:04.176Z,11.0
2019-05-05T03:18:13.481Z,11.0
2019-05-05T03:18:48.810Z,11.0
2019-05-05T03:19:24.975Z,11.0
2019-05-05T03:20:01.161Z,11.0
2019-05-05T03:21:13.998Z,10.9
2019-05-05T03:21:48.245Z,10.9
2019-05-05T03:22:23.654Z,10.9
2019-05-05T03:22:57.833Z,10.9
2019-05-05T03:23:33.453Z,10.9
2019-05-05T03:24:44.602Z,10.9
2019-05-05T03:25:17.907Z,10.9
2019-05-05T03:25:54.532Z,10.9
2019-05-05T03:26:28.117Z,11.0
2019-05-05T03:27:03.867Z,11.0
2019-05-05T03:28:16.112Z,11.0
2019-05-05T03:28:51.747Z,11.0
2019-05-05T03:29:27.910Z,11.0
2019-05-05T03:30:04.932Z,11.0
2019-05-05T03:31:15.853Z,11.0
2019-05-05T03:31:50.548Z,11.0
2019-05-05T03:32:26.175Z,11.0
2019-05-05T03:33:04.956Z,11.0
2019-05-05T03:34:16.274Z,11.0
2019-05-05T03:34:48.803Z,11.0
2019-05-05T03:35:24.457Z,11.0
2019-05-05T03:36:00.118Z,11.0
2019-05-05T03:36:35.202Z,11.0
2019-05-05T03:37:45.499Z,10.9
2019-05-05T03:38:20.070Z,10.9
2019-05-05T03:38:54.678Z,10.9
2019-05-05T03:39:29.299Z,10.9
2019-05-05T03:40:04.310Z,10.9
2019-05-05T03:41:13.570Z,10.9
2019-05-05T03:41:48.201Z,10.9
2019-05-05T03:42:24.470Z,10.9
2019-05-05T03:42:57.974Z,10.8
2019-05-05T03:43:34.359Z,10.8
2019-05-05T03:44:45.938Z,10.8
2019-05-05T03:45:23.427Z,10.8
2019-05-05T03:45:58.314Z,10.7
2019-05-05T03:46:34.418Z,10.7
2019-05-05T03:47:44.047Z,10.7
2019-05-05T03:48:18.279Z,10.7
2019-05-05T03:48:54.043Z,10.7
2019-05-05T03:49:28.017Z,10.7
2019-05-05T03:50:04.306Z,10.7
2019-05-05T03:51:18.678Z,10.6
2019-05-05T03:51:48.516Z,10.6
2019-05-05T03:52:24.508Z,10.6
2019-05-05T03:52:59.819Z,10.6
2019-05-05T03:54:11.125Z,10.6
2019-05-05T03:54:46.378Z,10.6
2019-05-05T03:55:23.969Z,10.6
2019-05-05T03:55:57.551Z,10.6
2019-05-05T03:56:34.676Z,10.6
2019-05-05T03:57:44.634Z,10.6
2019-05-05T03:58:20.391Z,10.6
2019-05-05T03:58:58.218Z,10.6
2019-05-05T03:59:33.099Z,10.6
2019-05-05T04:00:06.580Z,10.6
2019-05-05T04:00:43.294Z,10.6
2019-05-05T04:01:17.911Z,10.5
2019-05-05T04:01:54.024Z,10.5
2019-05-05T04:02:27.090Z,10.4
2019-05-05T04:03:04.269Z,10.4
2019-05-05T04:04:13.888Z,10.3
2019-05-05T04:04:47.615Z,10.2
2019-05-05T04:05:23.569Z,10.2
2019-05-05T04:05:58.916Z,10.2
2019-05-05T04:06:34.577Z,10.2
2019-05-05T04:07:46.918Z,10.1
2019-05-05T04:08:22.954Z,10.1
2019-05-05T04:08:56.649Z,10.1
2019-05-05T04:09:31.904Z,10.1
2019-05-05T04:10:41.524Z,10.1
2019-05-05T04:11:16.109Z,10.0
2019-05-05T04:11:53.684Z,10.0
2019-05-05T04:12:27.430Z,10.0
2019-05-05T04:13:04.620Z,10.0
2019-05-05T04:14:14.171Z,9.9
2019-05-05T04:14:47.925Z,9.9
2019-05-05T04:15:24.371Z,9.9
2019-05-05T04:15:57.162Z,9.8
2019-05-05T04:16:34.207Z,9.8
2019-05-05T04:17:44.618Z,9.8
2019-05-05T04:18:20.780Z,9.8
2019-05-05T04:18:56.522Z,9.8
2019-05-05T04:19:34.237Z,9.8
2019-05-05T04:20:44.429Z,9.8
2019-05-05T04:21:31.060Z,9.8
2019-05-05T04:21:56.775Z,9.7
2019-05-05T04:22:33.746Z,9.7
2019-05-05T04:23:41.646Z,9.7
2019-05-05T04:24:16.768Z,9.7
2019-05-05T04:24:53.888Z,9.7
2019-05-05T04:25:26.544Z,9.7
2019-05-05T04:26:03.894Z,9.7
2019-05-05T04:26:36.239Z,9.7
2019-05-05T04:27:45.476Z,9.6
2019-05-05T04:28:21.106Z,9.6
2019-05-05T04:28:56.748Z,9.6
2019-05-05T04:29:34.223Z,9.6
2019-05-05T04:30:44.428Z,9.6
2019-05-05T04:31:18.842Z,9.6
2019-05-05T04:31:54.501Z,9.6
2019-05-05T04:32:30.124Z,9.6
2019-05-05T04:33:41.442Z,9.6
2019-05-05T04:34:17.113Z,9.6
2019-05-05T04:35:28.382Z,9.6
2019-05-05T04:36:04.045Z,9.6
2019-05-05T04:37:17.025Z,9.6
2019-05-05T04:37:53.992Z,9.6
2019-05-05T04:38:28.212Z,9.6
2019-05-05T04:39:04.409Z,9.6
2019-05-05T04:40:16.212Z,9.6
2019-05-05T04:40:54.144Z,9.6
2019-05-05T04:41:28.047Z,9.5
2019-05-05T04:42:04.702Z,9.5
2019-05-05T04:43:14.257Z,9.5
2019-05-05T04:43:48.030Z,9.5
2019-05-05T04:44:23.611Z,9.5
2019-05-05T04:45:34.651Z,9.5
2019-05-05T04:46:43.795Z,9.5
2019-05-05T04:47:16.694Z,9.5
2019-05-05T04:47:51.294Z,9.5
2019-05-05T04:48:27.099Z,9.4
2019-05-05T04:49:03.520Z,9.4
2019-05-05T04:50:14.621Z,9.3
2019-05-05T04:50:47.452Z,9.3
2019-05-05T04:51:22.063Z,9.3
2019-05-05T04:51:57.191Z,9.3
2019-05-05T04:52:34.099Z,9.3
2019-05-05T04:53:06.910Z,9.2
2019-05-05T04:53:43.796Z,9.2
2019-05-05T04:54:19.272Z,9.2
2019-05-05T04:55:31.093Z,9.2
2019-05-05T04:56:07.293Z,9.2
2019-05-05T04:56:44.687Z,9.2
2019-05-05T04:57:19.105Z,9.2
2019-05-05T04:57:55.298Z,9.2
2019-05-05T04:58:30.943Z,9.2
2019-05-05T04:59:07.118Z,9.2
2019-05-05T04:59:44.420Z,9.2
2019-05-05T05:00:18.946Z,9.1
2019-05-05T05:00:54.639Z,9.1
2019-05-05T05:01:29.207Z,9.1
2019-05-05T05:02:04.337Z,9.1
2019-05-05T05:03:14.053Z,9.1
2019-05-05T05:03:49.194Z,9.1
2019-05-05T05:04:24.384Z,9.1
2019-05-05T05:04:58.931Z,9.1
2019-05-05T05:05:34.041Z,9.1
2019-05-05T05:06:44.298Z,9.1
2019-05-05T05:07:18.901Z,9.1
2019-05-05T05:07:55.316Z,9.1
2019-05-05T05:08:29.134Z,9.1
2019-05-05T05:09:04.112Z,9.1
2019-05-05T05:10:13.809Z,9.1
2019-05-05T05:10:47.661Z,9.1
2019-05-05T05:11:22.153Z,9.1
2019-05-05T05:11:56.764Z,9.1
2019-05-05T05:12:31.372Z,9.1
2019-05-05T05:13:05.991Z,9.1
2019-05-05T05:14:15.172Z,9.1
2019-05-05T05:15:24.915Z,9.2
2019-05-05T05:16:00.564Z,9.2
2019-05-05T05:16:36.216Z,9.2
2019-05-05T05:17:13.553Z,9.2
2019-05-05T05:17:47.504Z,9.1
2019-05-05T05:18:23.990Z,9.1
2019-05-05T05:18:56.736Z,9.1
2019-05-05T05:19:33.486Z,9.1
2019-05-05T05:20:41.585Z,9.1
2019-05-05T05:21:16.690Z,9.1
2019-05-05T05:22:00.978Z,9.1
2019-05-05T05:22:27.062Z,9.1
2019-05-05T05:23:03.403Z,9.1
2019-05-05T05:24:11.815Z,9.1
2019-05-05T05:24:46.944Z,9.1
2019-05-05T05:25:21.579Z,9.1
2019-05-05T05:25:56.719Z,9.1
2019-05-05T05:26:33.564Z,9.1
2019-05-05T05:27:41.537Z,9.1
2019-05-05T05:28:16.676Z,9.1
2019-05-05T05:28:53.376Z,9.1
2019-05-05T05:29:26.920Z,9.2
2019-05-05T05:30:04.447Z,9.2
2019-05-05T05:31:14.934Z,9.2
2019-05-05T05:31:50.044Z,9.2
2019-05-05T05:32:25.696Z,9.2
2019-05-05T05:33:01.377Z,9.2
2019-05-05T05:34:14.582Z,9.1
2019-05-05T05:35:23.776Z,9.1
2019-05-05T05:35:56.470Z,9.1
2019-05-05T05:36:33.797Z,9.1
2019-05-05T05:37:05.674Z,9.1
2019-05-05T05:38:14.863Z,9.1
2019-05-05T05:38:49.504Z,9.1
2019-05-05T05:39:24.476Z,9.1
2019-05-05T05:39:58.678Z,9.1
2019-05-05T05:40:34.178Z,9.1
2019-05-05T05:41:43.599Z,9.1
2019-05-05T05:42:18.140Z,9.1
2019-05-05T05:42:54.185Z,9.0
2019-05-05T05:43:28.909Z,9.0
2019-05-05T05:44:04.596Z,9.0
2019-05-05T05:45:16.387Z,9.0
2019-05-05T05:45:54.133Z,9.0
2019-05-05T05:46:28.237Z,9.0
2019-05-05T05:47:04.560Z,8.9
2019-05-05T05:48:14.482Z,8.9
2019-05-05T05:48:48.736Z,8.9
2019-05-05T05:49:24.204Z,8.9
2019-05-05T05:49:59.008Z,8.9
2019-05-05T05:50:34.110Z,8.9
2019-05-05T05:51:44.675Z,8.9
2019-05-05T05:52:19.476Z,8.9
2019-05-05T05:52:54.172Z,8.9
2019-05-05T05:53:28.707Z,8.9
2019-05-05T05:54:03.870Z,8.9
2019-05-05T05:54:38.962Z,8.9
2019-05-05T05:55:14.533Z,8.9
2019-05-05T05:55:48.172Z,8.9
2019-05-05T05:56:24.769Z,8.9
2019-05-05T05:56:57.364Z,8.9
2019-05-05T05:57:31.978Z,8.9
2019-05-05T05:58:07.772Z,8.9
2019-05-05T05:58:44.011Z,8.9
2019-05-05T05:59:16.298Z,8.9
2019-05-05T06:00:27.078Z,8.8
2019-05-05T06:01:04.277Z,8.8
2019-05-05T06:02:15.677Z,8.8
2019-05-05T06:02:51.327Z,8.8
2019-05-05T06:03:26.918Z,8.8
2019-05-05T06:04:04.053Z,8.7
2019-05-05T06:05:14.712Z,8.7
2019-05-05T06:05:47.963Z,8.7
2019-05-05T06:06:24.100Z,8.7
2019-05-05T06:06:58.208Z,8.7
2019-05-05T06:07:33.644Z,8.7
2019-05-05T06:08:43.927Z,8.7
2019-05-05T06:09:18.187Z,8.7
2019-05-05T06:09:54.131Z,8.7
2019-05-05T06:10:27.939Z,8.7
2019-05-05T06:11:04.403Z,8.7
2019-05-05T06:11:38.203Z,8.7
2019-05-05T06:12:14.135Z,8.7
2019-05-05T06:12:47.909Z,8.7
2019-05-05T06:13:24.142Z,8.7
2019-05-05T06:13:58.168Z,8.7
2019-05-05T06:14:34.011Z,8.7
2019-05-05T06:15:44.302Z,8.6
2019-05-05T06:16:54.862Z,8.6
2019-05-05T06:17:31.023Z,8.6
2019-05-05T06:18:07.303Z,8.6
2019-05-05T06:18:43.684Z,8.6
2019-05-05T06:19:19.015Z,8.6
2019-05-05T06:19:55.195Z,8.6
2019-05-05T06:20:30.864Z,8.6
2019-05-05T06:21:07.190Z,8.6
2019-05-05T06:21:43.961Z,8.6
2019-05-05T06:22:28.393Z,8.6
2019-05-05T06:22:55.057Z,8.6
2019-05-05T06:23:31.269Z,8.6
2019-05-05T06:24:06.840Z,8.6
2019-05-05T06:25:19.213Z,8.6
2019-05-05T06:25:55.234Z,8.6
2019-05-05T06:26:31.037Z,8.5
2019-05-05T06:27:06.189Z,8.5
2019-05-05T06:27:41.309Z,8.5
2019-05-05T06:28:15.929Z,8.5
2019-05-05T06:28:51.012Z,8.5
2019-05-05T06:29:26.155Z,8.5
2019-05-05T06:30:01.304Z,8.5
2019-05-05T06:30:35.866Z,8.5
2019-05-05T06:31:45.613Z,8.5
2019-05-05T06:32:23.785Z,8.5
2019-05-05T06:32:56.010Z,8.5
2019-05-05T06:33:30.484Z,8.4
2019-05-05T06:34:05.584Z,8.4
2019-05-05T06:34:41.243Z,8.4
2019-05-05T06:35:16.900Z,8.4
2019-05-05T06:35:53.537Z,8.4
2019-05-05T06:36:28.218Z,8.4
2019-05-05T06:37:04.468Z,8.4
2019-05-05T06:38:15.147Z,8.4
2019-05-05T06:38:50.799Z,8.4
2019-05-05T06:39:26.440Z,8.4
2019-05-05T06:40:03.752Z,8.4
2019-05-05T06:40:37.765Z,8.4
2019-05-05T06:41:14.639Z,8.5
2019-05-05T06:41:48.542Z,8.5
2019-05-05T06:42:23.729Z,8.5
2019-05-05T06:42:58.798Z,8.5
2019-05-05T06:43:34.770Z,8.5
2019-05-05T06:44:08.528Z,8.5
2019-05-05T06:44:44.204Z,8.5
2019-05-05T06:45:18.806Z,8.5
2019-05-05T06:45:53.889Z,8.5
2019-05-05T06:46:28.535Z,8.5
2019-05-05T06:47:04.635Z,8.5
2019-05-05T06:48:14.016Z,8.5
2019-05-05T06:49:23.834Z,8.5
2019-05-05T06:49:58.738Z,8.4
2019-05-05T06:50:34.922Z,8.4
2019-05-05T06:51:46.744Z,8.4
2019-05-05T06:52:24.717Z,8.4
2019-05-05T06:52:58.567Z,8.5
2019-05-05T06:53:34.133Z,8.4
2019-05-05T06:54:09.480Z,8.5
2019-05-05T06:54:43.997Z,8.5
2019-05-05T06:55:18.552Z,8.5
2019-05-05T06:55:54.211Z,8.5
2019-05-05T06:56:27.767Z,8.5
2019-05-05T06:57:04.250Z,8.5
2019-05-05T06:57:36.970Z,8.6
2019-05-05T06:58:13.634Z,8.6
2019-05-05T06:58:48.272Z,8.6
2019-05-05T06:59:24.269Z,8.5
2019-05-05T06:59:58.560Z,8.5
2019-05-05T07:00:34.619Z,8.5
2019-05-05T07:01:08.793Z,8.5
2019-05-05T07:01:44.290Z,8.5
2019-05-05T07:02:18.529Z,8.5
2019-05-05T07:02:54.129Z,8.6
2019-05-05T07:03:29.829Z,8.6
2019-05-05T07:04:05.509Z,8.6
2019-05-05T07:04:41.636Z,8.6
2019-05-05T07:05:17.815Z,8.6
2019-05-05T07:05:53.962Z,8.6
2019-05-05T07:06:29.689Z,8.6
2019-05-05T07:07:05.828Z,8.6
2019-05-05T07:07:43.350Z,8.6
2019-05-05T07:08:17.646Z,8.6
2019-05-05T07:08:54.477Z,8.6
2019-05-05T07:09:29.473Z,8.6
2019-05-05T07:10:04.630Z,8.6
2019-05-05T07:11:15.965Z,8.6
2019-05-05T07:11:51.555Z,8.6
2019-05-05T07:12:27.211Z,8.6
2019-05-05T07:13:04.729Z,8.6
2019-05-05T07:13:38.540Z,8.6
2019-05-05T07:14:14.314Z,8.6
2019-05-05T07:14:49.849Z,8.6
2019-05-05T07:15:24.953Z,8.6
2019-05-05T07:16:00.610Z,8.5
2019-05-05T07:16:36.062Z,8.5
2019-05-05T07:17:45.474Z,8.6
2019-05-05T07:18:21.119Z,8.6
2019-05-05T07:18:56.774Z,8.6
2019-05-05T07:19:34.082Z,8.6
2019-05-05T07:20:08.057Z,8.6
2019-05-05T07:20:44.169Z,8.6
2019-05-05T07:21:18.846Z,8.5
2019-05-05T07:21:53.876Z,8.5
2019-05-05T07:22:28.053Z,8.5
2019-05-05T07:23:05.190Z,8.5
2019-05-05T07:23:37.242Z,8.5
2019-05-05T07:24:11.853Z,8.5
2019-05-05T07:24:46.460Z,8.5
2019-05-05T07:25:21.068Z,8.5
2019-05-05T07:25:55.667Z,8.5
2019-05-05T07:26:30.258Z,8.5
2019-05-05T07:27:05.033Z,8.5
2019-05-05T07:27:39.474Z,8.5
2019-05-05T07:28:15.256Z,8.5
2019-05-05T07:28:48.702Z,8.5
2019-05-05T07:29:23.870Z,8.5
2019-05-05T07:29:57.882Z,8.5
2019-05-05T07:30:33.539Z,8.5
2019-05-05T07:31:07.134Z,8.4
2019-05-05T07:31:43.756Z,8.4
2019-05-05T07:32:54.597Z,8.4
2019-05-05T07:33:30.215Z,8.4
2019-05-05T07:34:06.394Z,8.4
2019-05-05T07:34:43.882Z,8.4
2019-05-05T07:35:59.518Z,8.4
2019-05-05T07:36:30.603Z,8.4
2019-05-05T07:37:06.220Z,8.4
2019-05-05T07:37:43.632Z,8.4
2019-05-05T07:38:18.591Z,8.4
2019-05-05T07:38:54.774Z,8.4
2019-05-05T07:39:30.538Z,8.4
2019-05-05T07:40:06.575Z,8.4
2019-05-05T07:40:43.891Z,8.4
2019-05-05T07:41:18.411Z,8.4
2019-05-05T07:41:54.618Z,8.4
2019-05-05T07:42:30.238Z,8.3
2019-05-05T07:43:05.368Z,8.3
2019-05-05T07:44:25.329Z,8.3
2019-05-05T07:45:25.797Z,8.3
2019-05-05T07:45:59.455Z,8.3
2019-05-05T07:46:34.750Z,8.3
2019-05-05T07:47:09.217Z,8.3
2019-05-05T07:47:43.787Z,8.3
2019-05-05T07:48:18.369Z,8.3
2019-05-05T07:48:54.439Z,8.3
2019-05-05T07:49:27.572Z,8.3
2019-05-05T07:50:04.054Z,8.3
2019-05-05T07:50:37.790Z,8.3
2019-05-05T07:51:14.096Z,8.4
2019-05-05T07:51:47.127Z,8.4
2019-05-05T07:52:23.705Z,8.4
2019-05-05T07:53:11.292Z,8.4
2019-05-05T07:53:33.675Z,8.4
2019-05-05T07:54:09.113Z,8.4
2019-05-05T07:54:44.764Z,8.4
2019-05-05T07:55:20.416Z,8.4
2019-05-05T07:55:56.598Z,8.4
2019-05-05T07:56:34.127Z,8.4
2019-05-05T07:57:08.413Z,8.4
2019-05-05T07:57:44.597Z,8.3
2019-05-05T07:58:19.200Z,8.3
2019-05-05T07:58:54.461Z,8.3
2019-05-05T07:59:29.479Z,8.3
2019-05-05T08:00:05.371Z,8.3
2019-05-05T08:00:39.189Z,8.3
2019-05-05T08:01:14.330Z,8.3
2019-05-05T08:02:24.558Z,8.3
2019-05-05T08:02:59.187Z,8.3
2019-05-05T08:03:34.305Z,8.3
2019-05-05T08:04:09.472Z,8.3
2019-05-05T08:04:44.548Z,8.3
2019-05-05T08:05:19.174Z,8.3
2019-05-05T08:05:54.539Z,8.3
2019-05-05T08:06:29.406Z,8.3
2019-05-05T08:07:04.548Z,8.3
2019-05-05T08:07:39.162Z,8.3
2019-05-05T08:08:14.264Z,8.3
2019-05-05T08:08:49.398Z,8.3
2019-05-05T08:09:24.974Z,8.3
2019-05-05T08:09:59.647Z,8.3
2019-05-05T08:10:34.416Z,8.3
2019-05-05T08:11:09.382Z,8.3
2019-05-05T08:11:44.555Z,8.3
2019-05-05T08:12:20.089Z,8.3
2019-05-05T08:12:54.351Z,8.4
2019-05-05T08:13:30.409Z,8.4
2019-05-05T08:14:06.586Z,8.4
2019-05-05T08:14:44.165Z,8.4
2019-05-05T08:15:18.413Z,8.5
2019-05-05T08:15:59.293Z,8.5
2019-05-05T08:16:28.140Z,8.5
2019-05-05T08:17:04.096Z,8.5
2019-05-05T08:17:38.992Z,8.5
2019-05-05T08:18:13.849Z,8.5
2019-05-05T08:18:46.557Z,8.5
2019-05-05T08:19:21.171Z,8.5
2019-05-05T08:19:55.762Z,8.5
2019-05-05T08:20:30.371Z,8.5
2019-05-05T08:21:04.965Z,8.5
2019-05-05T08:21:40.134Z,8.5
2019-05-05T08:22:14.725Z,8.5
2019-05-05T08:23:29.675Z,8.5
2019-05-05T08:24:00.089Z,8.5
2019-05-05T08:24:35.202Z,8.5
2019-05-05T08:25:10.345Z,8.5
2019-05-05T08:25:45.535Z,8.5
2019-05-05T08:26:20.086Z,8.5
2019-05-05T08:26:55.204Z,8.5
2019-05-05T08:27:30.328Z,8.5
2019-05-05T08:28:05.459Z,8.5
2019-05-05T08:28:40.058Z,8.5
2019-05-05T08:29:15.189Z,8.5
2019-05-05T08:29:50.352Z,8.5
2019-05-05T08:30:25.435Z,8.5
2019-05-05T08:31:00.614Z,8.5
2019-05-05T08:31:35.167Z,8.5
2019-05-05T08:32:10.341Z,8.5
2019-05-05T08:33:55.158Z,8.5
2019-05-05T08:35:05.405Z,8.5
2019-05-05T08:35:40.574Z,8.5
2019-05-05T08:36:51.320Z,8.4
2019-05-05T08:37:27.514Z,8.4
2019-05-05T08:38:04.508Z,8.4
2019-05-05T08:38:39.316Z,8.4
2019-05-05T08:39:51.136Z,8.4
2019-05-05T08:40:27.311Z,8.4
2019-05-05T08:41:04.692Z,8.4
2019-05-05T08:41:40.242Z,8.4
2019-05-05T08:42:53.665Z,8.4
2019-05-05T08:43:27.150Z,8.5
2019-05-05T08:44:03.642Z,8.5
2019-05-05T08:44:37.397Z,8.5
2019-05-05T08:45:13.798Z,8.5
2019-05-05T08:46:24.215Z,8.5
2019-05-05T08:46:57.418Z,8.5
2019-05-05T08:47:34.344Z,8.5
2019-05-05T08:48:07.126Z,8.5
2019-05-05T08:48:44.148Z,8.5
2019-05-05T08:49:53.702Z,8.5
2019-05-05T08:50:27.264Z,8.5
2019-05-05T08:51:04.543Z,8.5
2019-05-05T08:51:37.344Z,8.5
2019-05-05T08:53:24.282Z,8.5
2019-05-05T08:53:57.352Z,8.5
2019-05-05T08:54:33.793Z,8.5
2019-05-05T08:55:07.068Z,8.5
2019-05-05T08:56:52.450Z,8.5
2019-05-05T08:57:27.572Z,8.5
2019-05-05T08:58:04.507Z,8.5
2019-05-05T08:58:37.308Z,8.5
2019-05-05T09:00:23.893Z,8.5
2019-05-05T09:00:57.297Z,8.5
2019-05-05T09:01:31.375Z,8.5
2019-05-05T09:02:06.087Z,8.6
2019-05-05T09:03:53.524Z,8.6
2019-05-05T09:05:05.439Z,8.6
2019-05-05T09:05:39.877Z,8.6
2019-05-05T09:06:15.533Z,8.6
2019-05-05T09:06:51.218Z,8.6
2019-05-05T09:07:26.318Z,8.6
2019-05-05T09:08:04.226Z,8.6
2019-05-05T09:08:37.640Z,8.6
2019-05-05T09:09:14.390Z,8.6
2019-05-05T09:10:25.116Z,8.6
2019-05-05T09:11:00.752Z,8.6
2019-05-05T09:11:36.406Z,8.6
2019-05-05T09:12:13.870Z,8.6
2019-05-05T09:13:24.623Z,8.5
2019-05-05T09:13:59.003Z,8.5
2019-05-05T09:22:39.668Z,8.5
2019-05-05T09:32:39.940Z,8.2
2019-05-05T09:43:09.085Z,8.1
2019-05-05T09:51:54.436Z,8.1
2019-05-05T09:54:54.170Z,8.2
2019-05-05T09:55:27.271Z,8.2
2019-05-05T09:58:26.054Z,8.2
2019-05-05T09:59:40.144Z,8.2
2019-05-05T10:01:24.594Z,8.2
2019-05-05T10:02:35.647Z,8.2
2019-05-05T10:03:10.747Z,8.2
2019-05-05T10:05:34.189Z,8.2
2019-05-05T10:07:55.956Z,8.2